Airport Name : John Murtha Johnstown Cambria Co

Other Name : Johnstown

ICAO : KJST

IATA : JST

FAA : JST

Latitude : 40.316111

Longitude : -78.833944

Country : United States

Local Date and Time : 20 Apr 2021 10:40

 

TAF (Terminal Aerodrome Forecast)

KJST 201258Z 2013/2112 30007KT P6SM VCSH BKN015 FM201600 27009G15KT P6SM SCT030 FM210000 VRB03KT P6SM OVC050 FM210400 VRB04KT P6SM OVC015

 

METAR (METeorological Aerodrome Report)

KJST 201354Z AUTO 26008KT 10SM CLR 09/04 A2996 RMK AO2 SLP148 T00890039

KJST 201319Z AUTO 28008KT 9SM SCT015 08/03 A2995 RMK AO2 T00830033

KJST 201254Z AUTO 31005KT 9SM BKN015 08/03 A2995 RMK AO2 SLP146 T00780033

KJST 201251Z AUTO 30006KT 9SM BKN015 08/03 A2995 RMK AO2

KJST 201154Z AUTO 28008KT 10SM CLR 07/03 A2993 RMK AO2 SLP138 T00720028 10106 20061 53019

KJST 201054Z AUTO 29005KT 10SM CLR 06/02 A2990 RMK AO2 SLP129 T00610017

To Charter a Jet Click here.